createdAt,value
2018-03-24T00:00:02.460Z,9.10
2018-03-24T00:02:36.970Z,11.45
2018-03-24T00:05:11.545Z,9.63
2018-03-24T00:07:45.955Z,13.13
2018-03-24T00:10:20.426Z,11.63
2018-03-24T00:12:54.988Z,15.50
2018-03-24T00:15:29.516Z,11.02
2018-03-24T00:18:04.101Z,10.13
2018-03-24T00:20:38.649Z,12.40
2018-03-24T00:23:13.112Z,8.90
2018-03-24T00:25:47.573Z,9.63
2018-03-24T00:28:22.009Z,8.75
2018-03-24T00:30:56.593Z,8.43
2018-03-24T00:33:31.149Z,9.70
2018-03-24T00:36:05.618Z,8.75
2018-03-24T00:38:40.065Z,8.35
2018-03-24T00:41:14.586Z,9.40
2018-03-24T00:43:48.997Z,7.65
2018-03-24T00:46:23.542Z,10.18
2018-03-24T00:48:58.073Z,7.95
2018-03-24T00:51:32.452Z,7.93
2018-03-24T00:54:06.933Z,9.07
2018-03-24T00:56:41.506Z,10.63
2018-03-24T00:59:16.073Z,9.50
2018-03-24T01:01:50.553Z,9.07
2018-03-24T01:04:25.744Z,9.98
2018-03-24T01:07:00.221Z,8.45
2018-03-24T01:09:34.802Z,7.78
2018-03-24T01:12:09.303Z,9.20
2018-03-24T01:14:43.669Z,8.40
2018-03-24T01:17:18.062Z,9.25
2018-03-24T01:19:52.552Z,8.90
2018-03-24T01:22:26.985Z,7.93
2018-03-24T01:25:01.543Z,8.40
2018-03-24T01:27:35.973Z,7.97
2018-03-24T01:30:11.193Z,8.80
2018-03-24T01:32:46.063Z,8.10
2018-03-24T01:35:20.659Z,8.45
2018-03-24T01:37:56.013Z,8.02
2018-03-24T01:40:30.725Z,8.18
2018-03-24T01:43:05.345Z,8.20
2018-03-24T01:45:39.970Z,8.30
2018-03-24T01:48:14.476Z,8.10
2018-03-24T01:50:48.905Z,8.40
2018-03-24T01:53:37.069Z,9.27
2018-03-24T01:56:11.573Z,10.07
2018-03-24T01:58:46.177Z,9.25
2018-03-24T02:01:20.817Z,10.27
2018-03-24T02:03:56.169Z,9.68
2018-03-24T02:06:30.641Z,9.18
2018-03-24T02:09:05.128Z,9.10
2018-03-24T02:11:39.567Z,9.38
2018-03-24T02:14:14.079Z,9.48
2018-03-24T02:16:48.461Z,9.80
2018-03-24T02:19:32.554Z,10.52
2018-03-24T02:22:07.192Z,11.70
2018-03-24T02:24:42.893Z,8.73
2018-03-24T02:27:17.462Z,7.97
2018-03-24T02:29:51.869Z,8.80
2018-03-24T02:32:26.458Z,9.35
2018-03-24T02:35:00.823Z,8.32
2018-03-24T02:37:35.534Z,9.85
2018-03-24T02:40:09.961Z,8.85
2018-03-24T02:42:45.182Z,8.40
2018-03-24T02:45:20.489Z,8.80
2018-03-24T02:47:55.103Z,8.68
2018-03-24T02:50:29.673Z,8.50
2018-03-24T02:53:04.347Z,10.00
2018-03-24T02:55:38.746Z,8.98
2018-03-24T02:58:13.334Z,9.38
2018-03-24T03:00:48.877Z,9.50
2018-03-24T03:03:23.613Z,9.95
2018-03-24T03:05:58.121Z,9.35
2018-03-24T03:08:32.865Z,8.65
2018-03-24T03:11:08.180Z,8.77
2018-03-24T03:13:42.742Z,9.35
2018-03-24T03:16:17.270Z,9.23
2018-03-24T03:18:51.980Z,9.77
2018-03-24T03:24:24.378Z,10.15
2018-03-24T03:26:59.514Z,9.60
2018-03-24T03:29:34.204Z,9.38
2018-03-24T03:32:12.942Z,10.60
2018-03-24T03:34:48.408Z,10.48
2018-03-24T03:37:22.832Z,10.60
2018-03-24T03:39:57.474Z,9.75
2018-03-24T03:42:32.268Z,9.98
2018-03-24T03:45:07.525Z,9.65
2018-03-24T03:47:41.869Z,9.60
2018-03-24T03:50:16.785Z,8.98
2018-03-24T03:52:51.218Z,9.73
2018-03-24T03:55:25.737Z,9.07
2018-03-24T03:58:00.108Z,10.95
2018-03-24T04:00:34.672Z,10.32
2018-03-24T04:03:09.224Z,10.75
2018-03-24T04:05:43.980Z,10.70
2018-03-24T04:08:18.348Z,10.70
2018-03-24T04:10:53.572Z,10.38
2018-03-24T04:13:28.021Z,10.45
2018-03-24T04:16:03.353Z,11.07
2018-03-24T04:18:37.888Z,9.90
2018-03-24T04:21:12.689Z,11.18
2018-03-24T04:23:47.337Z,10.60
2018-03-24T04:26:21.858Z,10.65
2018-03-24T04:28:56.328Z,9.55
2018-03-24T04:31:30.996Z,11.85
2018-03-24T04:34:05.539Z,10.15
2018-03-24T04:36:40.862Z,11.07
2018-03-24T04:39:15.604Z,11.75
2018-03-24T04:41:50.316Z,10.85
2018-03-24T04:44:24.873Z,10.93
2018-03-24T04:46:59.357Z,11.50
2018-03-24T04:49:33.709Z,11.40
2018-03-24T04:52:09.226Z,11.70
2018-03-24T04:54:43.732Z,10.73
2018-03-24T04:57:18.513Z,12.23
2018-03-24T04:59:52.917Z,11.82
2018-03-24T05:02:27.539Z,12.40
2018-03-24T05:05:01.954Z,11.73
2018-03-24T05:07:36.779Z,12.10
2018-03-24T05:10:12.481Z,12.55
2018-03-24T05:12:47.067Z,11.82
2018-03-24T05:15:21.561Z,12.30
2018-03-24T05:17:56.115Z,10.75
2018-03-24T05:20:30.451Z,12.37
2018-03-24T05:23:05.201Z,11.35
2018-03-24T05:25:39.647Z,11.38
2018-03-24T05:28:14.395Z,12.37
2018-03-24T05:30:48.805Z,11.60
2018-03-24T05:33:23.856Z,12.65
2018-03-24T05:35:58.237Z,11.25
2018-03-24T05:38:33.324Z,12.98
2018-03-24T05:41:07.728Z,13.40
2018-03-24T05:43:42.197Z,11.98
2018-03-24T05:46:16.446Z,12.25
2018-03-24T05:48:51.403Z,12.27
2018-03-24T05:51:26.033Z,12.95
2018-03-24T05:54:00.606Z,12.70
2018-03-24T05:56:35.684Z,12.85
2018-03-24T05:59:10.325Z,13.10
2018-03-24T06:01:45.664Z,12.45
2018-03-24T06:04:20.384Z,12.50
2018-03-24T06:06:55.015Z,13.05
2018-03-24T06:09:29.685Z,12.32
2018-03-24T06:12:04.114Z,12.68
2018-03-24T06:14:38.575Z,12.75
2018-03-24T06:17:12.884Z,13.32
2018-03-24T06:19:48.177Z,13.80
2018-03-24T06:22:22.660Z,12.75
2018-03-24T06:24:57.397Z,12.55
2018-03-24T06:27:32.542Z,12.40
2018-03-24T06:30:10.520Z,13.65
2018-03-24T06:32:44.785Z,13.15
2018-03-24T06:35:20.016Z,12.63
2018-03-24T06:37:54.527Z,14.25
2018-03-24T06:40:29.182Z,13.18
2018-03-24T06:43:03.465Z,13.45
2018-03-24T06:45:38.039Z,13.95
2018-03-24T06:48:12.580Z,14.43
2018-03-24T06:50:47.106Z,12.40
2018-03-24T06:53:21.603Z,13.38
2018-03-24T06:55:57.195Z,13.50
2018-03-24T06:58:31.820Z,13.50
2018-03-24T07:01:06.250Z,12.80
2018-03-24T07:03:41.386Z,14.82
2018-03-24T07:06:16.037Z,13.15
2018-03-24T07:08:50.572Z,13.93
2018-03-24T07:11:25.156Z,14.43
2018-03-24T07:13:59.557Z,14.13
2018-03-24T07:16:34.230Z,13.88
2018-03-24T07:19:08.650Z,13.52
2018-03-24T07:21:43.864Z,13.50
2018-03-24T07:24:18.170Z,14.30
2018-03-24T07:26:52.702Z,14.15
2018-03-24T07:29:27.454Z,12.10
2018-03-24T07:32:01.957Z,14.55
2018-03-24T07:34:37.299Z,15.02
2018-03-24T07:37:11.862Z,13.50
2018-03-24T07:39:46.700Z,13.20
2018-03-24T07:42:21.499Z,14.10
2018-03-24T07:44:55.957Z,14.10
2018-03-24T07:47:30.518Z,13.48
2018-03-24T07:50:04.950Z,14.27
2018-03-24T07:52:39.521Z,13.90
2018-03-24T07:55:13.929Z,14.25
2018-03-24T07:57:48.410Z,13.25
2018-03-24T08:00:22.957Z,14.10
2018-03-24T08:02:57.465Z,14.93
2018-03-24T08:05:31.888Z,15.15
2018-03-24T08:08:06.323Z,14.30
2018-03-24T08:10:40.651Z,14.38
2018-03-24T08:13:15.146Z,15.10
2018-03-24T08:15:49.557Z,13.38
2018-03-24T08:18:24.060Z,15.27
2018-03-24T08:20:58.479Z,15.10
2018-03-24T08:23:32.911Z,14.73
2018-03-24T08:26:07.346Z,15.23
2018-03-24T08:28:41.809Z,14.50
2018-03-24T08:31:16.284Z,15.55
2018-03-24T08:33:51.497Z,15.55
2018-03-24T08:36:26.764Z,14.95
2018-03-24T08:39:01.285Z,14.98
2018-03-24T08:41:35.600Z,15.05
2018-03-24T08:44:10.041Z,15.70
2018-03-24T08:46:44.516Z,13.95
2018-03-24T08:49:18.968Z,15.18
2018-03-24T08:51:53.277Z,15.30
2018-03-24T08:54:28.140Z,15.90
2018-03-24T08:57:03.252Z,15.25
2018-03-24T08:59:37.997Z,15.15
2018-03-24T09:02:12.595Z,15.70
2018-03-24T09:04:47.054Z,16.83
2018-03-24T09:07:21.651Z,14.55
2018-03-24T09:09:56.089Z,15.20
2018-03-24T09:12:30.720Z,15.75
2018-03-24T09:15:05.398Z,15.48
2018-03-24T09:17:39.908Z,16.02
2018-03-24T09:20:14.610Z,16.33
2018-03-24T09:22:49.324Z,15.88
2018-03-24T09:25:24.257Z,15.35
2018-03-24T09:27:58.758Z,15.35
2018-03-24T09:30:34.119Z,16.15
2018-03-24T09:33:08.573Z,15.45
2018-03-24T09:35:43.072Z,15.40
2018-03-24T09:38:17.620Z,16.02
2018-03-24T09:40:52.156Z,16.08
2018-03-24T09:43:27.045Z,15.90
2018-03-24T09:46:01.887Z,16.60
2018-03-24T09:48:37.048Z,16.45
2018-03-24T09:51:11.755Z,16.85
2018-03-24T09:53:47.102Z,16.40
2018-03-24T09:56:21.838Z,15.60
2018-03-24T09:58:56.236Z,16.70
2018-03-24T10:01:30.676Z,17.45
2018-03-24T10:04:05.185Z,17.08
2018-03-24T10:06:39.744Z,17.00
2018-03-24T10:09:15.580Z,17.12
2018-03-24T10:11:50.180Z,17.73
2018-03-24T10:14:26.240Z,15.95
2018-03-24T10:17:01.075Z,17.77
2018-03-24T10:19:35.986Z,18.58
2018-03-24T10:25:20.400Z,17.40
2018-03-24T10:27:54.893Z,18.50
2018-03-24T10:30:29.853Z,17.58
2018-03-24T10:33:04.469Z,19.12
2018-03-24T10:35:38.899Z,19.20
2018-03-24T10:38:13.516Z,19.55
2018-03-24T10:40:48.147Z,19.30
2018-03-24T10:43:28.308Z,19.55
2018-03-24T10:46:03.513Z,20.62
2018-03-24T10:48:37.952Z,19.45
2018-03-24T10:51:12.501Z,19.65
2018-03-24T10:53:46.997Z,22.77
2018-03-24T10:56:22.154Z,21.02
2018-03-24T10:58:56.867Z,20.05
2018-03-24T11:01:32.217Z,19.90
2018-03-24T11:04:06.882Z,23.27
2018-03-24T11:06:41.456Z,20.70
2018-03-24T11:09:15.901Z,21.27
2018-03-24T11:11:50.704Z,21.35
2018-03-24T11:14:25.744Z,20.67
2018-03-24T11:17:01.016Z,22.40
2018-03-24T11:19:35.582Z,21.20
2018-03-24T11:22:10.282Z,22.15
2018-03-24T11:24:44.862Z,22.60
2018-03-24T11:27:20.074Z,21.60
2018-03-24T11:29:54.853Z,21.40
2018-03-24T11:32:30.184Z,22.70
2018-03-24T11:35:05.537Z,21.87
2018-03-24T11:37:40.756Z,22.73
2018-03-24T11:40:15.409Z,24.75
2018-03-24T11:42:49.824Z,24.55
2018-03-24T11:45:24.448Z,22.95
2018-03-24T11:47:58.833Z,24.02
2018-03-24T11:50:34.164Z,22.48
2018-03-24T11:53:08.615Z,23.80
2018-03-24T11:55:43.495Z,22.83
2018-03-24T11:58:17.964Z,23.92
2018-03-24T12:00:52.527Z,23.52
2018-03-24T12:03:27.846Z,25.20
2018-03-24T12:06:02.564Z,23.48
2018-03-24T12:08:37.161Z,25.20
2018-03-24T12:11:11.660Z,23.15
2018-03-24T12:13:46.140Z,24.95
2018-03-24T12:16:20.861Z,21.95
2018-03-24T12:18:55.148Z,23.85
2018-03-24T12:21:29.924Z,23.25
2018-03-24T12:24:04.514Z,23.98
2018-03-24T12:26:39.151Z,24.37
2018-03-24T12:29:14.519Z,23.05
2018-03-24T12:31:50.056Z,25.00
2018-03-24T12:34:24.694Z,24.80
2018-03-24T12:36:59.714Z,27.73
2018-03-24T12:39:34.124Z,26.58
2018-03-24T12:42:08.752Z,26.08
2018-03-24T12:44:43.923Z,25.10
2018-03-24T12:47:18.633Z,23.73
2018-03-24T12:49:53.264Z,25.02
2018-03-24T12:52:28.101Z,24.83
2018-03-24T12:55:02.713Z,25.08
2018-03-24T12:57:37.121Z,24.65
2018-03-24T13:00:11.677Z,24.20
2018-03-24T13:02:46.173Z,24.35
2018-03-24T13:05:20.618Z,25.58
2018-03-24T13:07:55.355Z,25.08
2018-03-24T13:10:30.306Z,26.23
2018-03-24T13:13:04.995Z,25.48
2018-03-24T13:15:39.582Z,25.52
2018-03-24T13:18:15.358Z,24.33
2018-03-24T13:20:49.828Z,24.50
2018-03-24T13:23:24.413Z,26.23
2018-03-24T13:25:58.731Z,24.50
2018-03-24T13:28:33.984Z,25.27
2018-03-24T13:31:08.611Z,25.80
2018-03-24T13:33:43.109Z,24.73
2018-03-24T13:36:18.266Z,24.98
2018-03-24T13:38:52.874Z,26.17
2018-03-24T13:41:27.425Z,26.20
2018-03-24T13:44:02.034Z,24.58
2018-03-24T13:46:36.648Z,25.23
2018-03-24T13:49:11.274Z,22.37
2018-03-24T13:51:45.808Z,22.98
2018-03-24T13:54:20.317Z,23.85
2018-03-24T13:56:54.976Z,23.65
2018-03-24T13:59:29.569Z,22.00
2018-03-24T14:02:04.607Z,22.42
2018-03-24T14:04:39.232Z,21.60
2018-03-24T14:07:13.757Z,19.58
2018-03-24T14:09:48.286Z,20.27
2018-03-24T14:12:22.910Z,20.02
2018-03-24T14:14:57.536Z,19.27
2018-03-24T14:17:32.132Z,21.52
2018-03-24T14:20:06.578Z,21.00
2018-03-24T14:22:41.193Z,19.27
2018-03-24T14:25:16.850Z,18.92
2018-03-24T14:27:51.323Z,19.33
2018-03-24T14:30:25.902Z,17.62
2018-03-24T14:33:01.895Z,17.48
2018-03-24T14:35:36.589Z,17.35
2018-03-24T14:38:11.072Z,15.68
2018-03-24T14:40:45.831Z,17.42
2018-03-24T14:43:21.233Z,16.95
2018-03-24T14:45:55.886Z,15.80
2018-03-24T14:48:30.162Z,15.32
2018-03-24T14:51:05.357Z,16.40
2018-03-24T14:53:39.989Z,14.23
2018-03-24T14:56:14.811Z,16.73
2018-03-24T14:58:49.369Z,15.55
2018-03-24T15:01:23.869Z,15.93
2018-03-24T15:03:59.238Z,16.75
2018-03-24T15:06:33.735Z,15.45
2018-03-24T15:09:08.253Z,14.87
2018-03-24T15:11:42.709Z,14.87
2018-03-24T15:14:17.278Z,14.43
2018-03-24T15:16:51.824Z,13.60
2018-03-24T15:19:26.366Z,14.05
2018-03-24T15:22:01.021Z,14.07
2018-03-24T15:24:35.591Z,13.62
2018-03-24T15:27:10.326Z,14.57
2018-03-24T15:30:02.645Z,14.15
2018-03-24T15:32:53.164Z,14.10
2018-03-24T15:35:31.952Z,14.48
2018-03-24T15:38:07.537Z,15.80
2018-03-24T15:40:41.983Z,14.75
2018-03-24T15:43:16.525Z,15.38
2018-03-24T15:45:51.281Z,14.77
2018-03-24T15:48:26.040Z,15.02
2018-03-24T15:51:01.384Z,14.30
2018-03-24T15:53:36.105Z,14.13
2018-03-24T15:56:10.793Z,14.65
2018-03-24T15:58:45.261Z,14.00
2018-03-24T16:01:19.833Z,14.80
2018-03-24T16:03:54.309Z,13.32
2018-03-24T16:06:28.873Z,13.40
2018-03-24T16:09:03.538Z,13.95
2018-03-24T16:11:37.916Z,13.13
2018-03-24T16:14:12.515Z,13.27
2018-03-24T16:16:47.020Z,17.05
2018-03-24T16:19:21.553Z,11.80
2018-03-24T16:21:55.844Z,14.55
2018-03-24T16:24:30.609Z,13.45
2018-03-24T16:27:05.039Z,11.85
2018-03-24T16:29:39.683Z,13.38
2018-03-24T16:32:14.593Z,12.55
2018-03-24T16:34:49.300Z,13.18
2018-03-24T16:37:23.628Z,12.95
2018-03-24T16:39:58.356Z,13.07
2018-03-24T16:42:32.635Z,12.43
2018-03-24T16:45:07.392Z,12.82
2018-03-24T16:47:41.921Z,13.20
2018-03-24T16:50:16.370Z,14.23
2018-03-24T16:52:50.748Z,12.52
2018-03-24T16:55:25.515Z,12.02
2018-03-24T16:58:00.264Z,12.70
2018-03-24T17:00:34.943Z,12.55
2018-03-24T17:03:10.294Z,11.88
2018-03-24T17:05:44.813Z,12.82
2018-03-24T17:08:19.127Z,12.10
2018-03-24T17:10:53.982Z,12.00
2018-03-24T17:13:28.508Z,14.38
2018-03-24T17:16:03.003Z,14.40
2018-03-24T17:18:37.560Z,14.25
2018-03-24T17:21:12.179Z,14.63
2018-03-24T17:23:47.688Z,14.05
2018-03-24T17:26:22.434Z,13.18
2018-03-24T17:28:56.946Z,15.13
2018-03-24T17:31:31.714Z,13.65
2018-03-24T17:34:06.277Z,13.60
2018-03-24T17:39:58.700Z,15.55
2018-03-24T17:42:34.016Z,12.32
2018-03-24T17:45:08.545Z,12.50
2018-03-24T17:47:43.061Z,12.43
2018-03-24T17:50:17.533Z,12.37
2018-03-24T17:52:53.540Z,11.82
2018-03-24T17:55:28.091Z,13.90
2018-03-24T17:58:02.588Z,11.50
2018-03-24T18:00:37.050Z,13.77
2018-03-24T18:03:12.167Z,14.60
2018-03-24T18:05:46.623Z,12.45
2018-03-24T18:08:21.099Z,12.63
2018-03-24T18:10:55.612Z,11.93
2018-03-24T18:13:30.792Z,11.80
2018-03-24T18:16:06.088Z,12.35
2018-03-24T18:18:40.612Z,11.50
2018-03-24T18:21:15.072Z,11.82
2018-03-24T18:23:50.085Z,12.07
2018-03-24T18:26:24.512Z,12.15
2018-03-24T18:29:00.179Z,13.65
2018-03-24T18:31:34.655Z,10.60
2018-03-24T18:34:10.628Z,11.02
2018-03-24T18:36:45.269Z,10.73
2018-03-24T18:39:19.805Z,12.37
2018-03-24T18:41:54.413Z,12.75
2018-03-24T18:44:29.234Z,13.75
2018-03-24T18:47:03.633Z,19.87
2018-03-24T18:49:38.273Z,19.67
2018-03-24T18:52:12.685Z,16.20
2018-03-24T18:54:47.525Z,16.50
2018-03-24T18:57:22.629Z,15.60
2018-03-24T18:59:57.406Z,16.20
2018-03-24T19:02:32.006Z,16.58
2018-03-24T19:05:06.641Z,13.98
2018-03-24T19:07:40.926Z,15.45
2018-03-24T19:10:16.006Z,11.20
2018-03-24T19:12:50.865Z,12.07
2018-03-24T19:15:26.255Z,11.35
2018-03-24T19:18:01.421Z,14.05
2018-03-24T19:20:36.049Z,13.25
2018-03-24T19:23:10.440Z,14.57
2018-03-24T19:25:44.976Z,13.90
2018-03-24T19:28:19.384Z,11.93
2018-03-24T19:30:53.826Z,12.45
2018-03-24T19:33:28.344Z,12.27
2018-03-24T19:36:03.069Z,15.80
2018-03-24T19:38:38.209Z,14.75
2018-03-24T19:41:12.732Z,15.05
2018-03-24T19:43:47.738Z,13.57
2018-03-24T19:46:22.546Z,14.07
2018-03-24T19:48:56.983Z,13.88
2018-03-24T19:51:31.493Z,14.90
2018-03-24T19:54:06.220Z,13.57
2018-03-24T19:56:40.997Z,13.38
2018-03-24T19:59:15.522Z,16.27
2018-03-24T20:01:50.174Z,17.25
2018-03-24T20:04:25.027Z,12.13
2018-03-24T20:06:59.703Z,12.27
2018-03-24T20:09:34.728Z,14.30
2018-03-24T20:12:09.696Z,16.60
2018-03-24T20:14:44.236Z,19.33
2018-03-24T20:17:19.483Z,14.65
2018-03-24T20:19:54.447Z,13.68
2018-03-24T20:22:29.116Z,12.90
2018-03-24T20:25:03.607Z,15.50
2018-03-24T20:27:38.153Z,12.48
2018-03-24T20:30:12.663Z,12.70
2018-03-24T20:32:47.189Z,12.70
2018-03-24T20:35:21.677Z,12.55
2018-03-24T20:37:56.248Z,13.18
2018-03-24T20:40:30.708Z,15.15
2018-03-24T20:43:05.180Z,17.70
2018-03-24T20:45:40.709Z,15.60
2018-03-24T20:48:16.177Z,13.27
2018-03-24T20:50:50.749Z,13.35
2018-03-24T20:53:25.649Z,22.35
2018-03-24T20:56:00.353Z,11.82
2018-03-24T20:58:35.083Z,15.02
2018-03-24T21:01:09.833Z,13.48
2018-03-24T21:03:44.549Z,14.18
2018-03-24T21:06:19.937Z,11.70
2018-03-24T21:08:54.630Z,12.00
2018-03-24T21:11:29.163Z,13.25
2018-03-24T21:14:04.489Z,22.60
2018-03-24T21:16:39.017Z,15.93
2018-03-24T21:19:13.736Z,13.25
2018-03-24T21:21:48.235Z,14.32
2018-03-24T21:24:23.621Z,13.75
2018-03-24T21:26:58.137Z,13.48
2018-03-24T21:29:32.854Z,14.40
2018-03-24T21:32:07.141Z,12.98
2018-03-24T21:34:42.112Z,13.13
2018-03-24T21:37:16.620Z,19.60
2018-03-24T21:39:51.358Z,14.13
2018-03-24T21:42:25.982Z,16.20
2018-03-24T21:45:00.602Z,15.93
2018-03-24T21:47:35.841Z,12.93
2018-03-24T21:50:10.480Z,14.82
2018-03-24T21:52:45.067Z,17.05
2018-03-24T21:55:19.692Z,13.57
2018-03-24T21:57:54.234Z,11.98
2018-03-24T22:00:29.706Z,13.93
2018-03-24T22:03:04.916Z,11.93
2018-03-24T22:05:39.475Z,11.70
2018-03-24T22:08:13.965Z,14.98
2018-03-24T22:10:48.496Z,12.85
2018-03-24T22:13:23.044Z,15.13
2018-03-24T22:15:57.540Z,18.55
2018-03-24T22:18:31.876Z,13.45
2018-03-24T22:21:06.697Z,13.75
2018-03-24T22:23:41.204Z,17.12
2018-03-24T22:26:15.758Z,13.73
2018-03-24T22:28:50.168Z,13.52
2018-03-24T22:31:24.784Z,13.60
2018-03-24T22:33:59.224Z,20.83
2018-03-24T22:36:33.833Z,13.05
2018-03-24T22:39:08.866Z,13.27
2018-03-24T22:41:43.434Z,16.50
2018-03-24T22:44:17.996Z,19.55
2018-03-24T22:46:52.564Z,14.05
2018-03-24T22:49:26.940Z,13.15
2018-03-24T22:52:01.631Z,14.80
2018-03-24T22:54:35.924Z,14.87
2018-03-24T22:57:10.502Z,14.32
2018-03-24T22:59:45.005Z,15.82
2018-03-24T23:02:19.602Z,11.75
2018-03-24T23:04:54.924Z,16.42
2018-03-24T23:07:29.651Z,14.30
2018-03-24T23:10:04.233Z,17.98
2018-03-24T23:12:38.701Z,13.20
2018-03-24T23:15:13.272Z,15.32
2018-03-24T23:17:47.944Z,17.08
2018-03-24T23:20:22.401Z,13.40
2018-03-24T23:22:56.892Z,12.95
2018-03-24T23:25:31.403Z,13.55
2018-03-24T23:28:05.879Z,14.65
2018-03-24T23:30:40.189Z,12.95
2018-03-24T23:33:15.423Z,14.38
2018-03-24T23:35:49.946Z,12.50
2018-03-24T23:38:24.641Z,13.70
2018-03-24T23:40:59.208Z,14.55
2018-03-24T23:43:33.900Z,13.75
2018-03-24T23:46:09.344Z,17.25
2018-03-24T23:48:43.973Z,16.48
2018-03-24T23:51:18.412Z,17.55
2018-03-24T23:53:53.012Z,13.18
2018-03-24T23:56:28.164Z,17.92
2018-03-24T23:59:02.676Z,17.58
